Time;durP1;ratioP1;P1;durP2;ratioP2;P2;SDS_P1;SDS_P2;PMS_P1;PMS_P2;Temp;Humidity;BMP_temperature;BMP_pressure;BME280_temperature;BME280_humidity;BME280_pressure;Samples;Min_cycle;Max_cycle;Signal;HPM_P1;HPM_P2
2022/09/04 00:01:22;;;;;;;4.47;1.27;;;17.40;58.90;;;;;;5051376;28;20048;-68
2022/09/04 00:04:12;;;;;;;4.75;1.40;;;17.40;58.90;;;;;;5051934;28;20044;-69
2022/09/04 00:06:50;;;;;;;3.92;1.52;;;17.40;58.90;;;;;;5051738;28;20079;-68
2022/09/04 00:09:19;;;;;;;5.97;1.75;;;17.30;58.90;;;;;;5051522;28;20041;-68
2022/09/04 00:12:00;;;;;;;6.70;2.10;;;17.30;59.10;;;;;;5051631;28;20045;-68
2022/09/04 00:14:37;;;;;;;7.30;2.42;;;17.30;59.10;;;;;;5051810;28;20090;-68
2022/09/04 00:17:15;;;;;;;4.97;1.55;;;17.30;59.10;;;;;;5051728;28;20041;-68
2022/09/04 00:19:42;;;;;;;4.78;1.85;;;17.20;59.10;;;;;;5051365;28;20055;-68
2022/09/04 00:22:27;;;;;;;4.28;1.77;;;17.20;59.20;;;;;;5050319;28;20048;-68
2022/09/04 00:25:00;;;;;;;4.55;1.95;;;17.20;59.30;;;;;;5044092;28;20475;-68
2022/09/04 00:27:29;;;;;;;5.72;2.15;;;17.20;59.50;;;;;;5051460;28;20033;-69
2022/09/04 00:30:10;;;;;;;7.32;2.30;;;17.10;59.50;;;;;;5052242;28;20076;-69
2022/09/04 00:32:58;;;;;;;9.05;2.70;;;17.10;59.70;;;;;;5055511;28;20115;-68
2022/09/04 00:35:32;;;;;;;7.90;1.88;;;17.10;59.70;;;;;;5055716;28;20044;-69
2022/09/04 00:38:19;;;;;;;9.52;2.38;;;17.10;59.90;;;;;;5055378;28;20040;-69
2022/09/04 00:41:22;;;;;;;13.13;2.70;;;17.10;60.00;;;;;;5055150;28;20463;-68
2022/09/04 00:44:18;;;;;;;10.30;2.42;;;17.00;60.00;;;;;;5055458;28;20041;-68
2022/09/04 00:47:17;;;;;;;6.38;1.77;;;17.00;60.20;;;;;;5055210;28;20505;-68
2022/09/04 00:50:02;;;;;;;8.82;2.38;;;17.00;60.30;;;;;;5054945;28;20578;-68
2022/09/04 00:52:36;;;;;;;5.88;2.10;;;16.90;60.40;;;;;;5054220;28;20075;-68
2022/09/04 00:55:28;;;;;;;5.18;2.70;;;16.90;60.60;;;;;;5055216;28;20040;-69
2022/09/04 00:57:55;;;;;;;6.70;3.30;;;16.90;60.60;;;;;;5055254;28;20045;-68
2022/09/04 01:00:22;;;;;;;10.63;3.88;;;16.80;60.70;;;;;;5053755;28;20045;-68
2022/09/04 01:03:06;;;;;;;9.23;3.75;;;16.90;60.70;;;;;;5055020;28;20037;-68
2022/09/04 01:06:05;;;;;;;6.25;3.00;;;16.80;61.00;;;;;;5054957;28;20033;-68
2022/09/04 01:08:49;;;;;;;5.28;2.58;;;16.80;61.00;;;;;;5053534;28;20041;-68
2022/09/04 01:11:44;;;;;;;8.65;2.55;;;16.80;61.00;;;;;;5054529;28;20037;-68
2022/09/04 01:14:33;;;;;;;5.28;2.03;;;16.70;61.20;;;;;;5054751;28;20048;-69
2022/09/04 01:17:08;;;;;;;6.15;2.22;;;16.70;61.40;;;;;;5054854;28;20033;-69
2022/09/04 01:19:51;;;;;;;4.15;1.77;;;16.70;61.40;;;;;;5053194;28;20090;-68
2022/09/04 01:23:00;;;;;;;8.15;2.10;;;16.70;61.70;;;;;;5054553;28;20538;-68
2022/09/04 01:25:48;;;;;;;6.03;2.00;;;16.70;61.90;;;;;;5054820;28;20037;-68
2022/09/04 01:28:24;;;;;;;6.38;2.35;;;16.60;62.10;;;;;;5054423;28;20037;-68
2022/09/04 01:31:08;;;;;;;10.32;2.70;;;16.50;62.20;;;;;;5054129;28;20033;-69
2022/09/04 01:33:43;;;;;;;7.65;2.60;;;16.50;62.50;;;;;;5054670;28;20044;-68
2022/09/04 01:36:35;;;;;;;6.50;2.45;;;16.50;62.60;;;;;;5054538;28;20045;-68
2022/09/04 01:39:01;;;;;;;18.40;3.25;;;16.50;62.70;;;;;;5053030;28;20049;-68
2022/09/04 01:41:29;;;;;;;7.63;2.80;;;16.40;62.90;;;;;;5053524;28;20116;-68
2022/09/04 01:43:55;;;;;;;6.07;2.38;;;16.40;62.90;;;;;;5053161;28;20033;-68
2022/09/04 01:46:27;;;;;;;5.22;2.40;;;16.40;63.10;;;;;;5054299;28;20394;-68
2022/09/04 01:49:19;;;;;;;5.05;2.45;;;16.40;63.40;;;;;;5053982;28;20459;-68
2022/09/04 01:52:06;;;;;;;4.60;2.53;;;16.30;63.40;;;;;;5054018;28;20037;-68
2022/09/04 01:54:51;;;;;;;6.85;3.05;;;16.30;63.70;;;;;;5054248;28;20036;-68
2022/09/04 01:57:44;;;;;;;5.63;2.88;;;16.20;63.90;;;;;;5054074;28;20045;-68
2022/09/04 02:00:20;;;;;;;6.85;2.67;;;16.20;64.10;;;;;;5053517;28;20048;-68
2022/09/04 02:03:04;;;;;;;6.18;2.13;;;16.20;64.20;;;;;;5053843;28;20414;-68
2022/09/04 02:05:48;;;;;;;4.82;1.77;;;16.10;64.40;;;;;;5053965;28;20041;-68
2022/09/04 02:08:32;;;;;;;;;;;16.10;64.70;;;;;;5054170;28;20044;-68
2022/09/04 02:11:05;;;;;;;4.53;1.88;;;16.00;65.40;;;;;;5053615;28;20009;-68
2022/09/04 02:14:05;;;;;;;4.45;1.70;;;15.90;65.20;;;;;;5053817;28;20060;-68
2022/09/04 02:16:37;;;;;;;3.60;1.98;;;15.90;65.30;;;;;;5053636;28;20041;-68
2022/09/04 02:19:35;;;;;;;2.60;1.70;;;15.90;65.60;;;;;;5053787;28;20044;-68
2022/09/04 02:22:26;;;;;;;3.10;1.80;;;15.90;65.80;;;;;;5053587;28;20044;-68
2022/09/04 02:25:16;;;;;;;5.70;1.80;;;15.80;66.10;;;;;;5053471;28;20041;-68
2022/09/04 02:28:11;;;;;;;4.22;1.98;;;15.80;66.10;;;;;;5075708;22;20049;-68
2022/09/04 02:30:52;;;;;;;4.22;1.58;;;15.80;66.40;;;;;;5052607;28;20072;-68
2022/09/04 02:33:27;;;;;;;3.83;2.35;;;15.80;66.30;;;;;;5053163;28;20052;-68
2022/09/04 02:36:16;;;;;;;4.07;2.13;;;15.70;66.50;;;;;;5053315;28;20044;-68
2022/09/04 02:39:04;;;;;;;2.55;1.70;;;15.70;66.90;;;;;;5052883;28;20470;-68
2022/09/04 02:41:58;;;;;;;4.50;1.98;;;15.70;67.10;;;;;;5052893;28;20076;-68
2022/09/04 02:45:07;;;;;;;5.45;1.83;;;15.70;67.20;;;;;;5053144;28;20037;-69
2022/09/04 02:47:50;;;;;;;4.57;1.98;;;15.60;67.70;;;;;;5052899;28;20033;-68
2022/09/04 02:50:48;;;;;;;2.60;1.73;;;15.60;67.80;;;;;;5052856;28;20045;-68
2022/09/04 02:53:23;;;;;;;3.10;1.95;;;15.50;67.80;;;;;;5052340;28;20060;-68
2022/09/04 02:56:08;;;;;;;4.78;2.15;;;15.50;68.30;;;;;;5052876;28;20087;-68
2022/09/04 02:58:46;;;;;;;4.40;1.70;;;15.50;68.40;;;;;;5052684;28;20049;-68
2022/09/04 03:01:38;;;;;;;5.50;1.80;;;15.40;68.60;;;;;;5052444;28;20080;-68
2022/09/04 03:04:17;;;;;;;2.95;1.85;;;15.40;69.10;;;;;;5052704;28;20048;-68
2022/09/04 03:06:50;;;;;;;3.90;2.22;;;15.40;69.50;;;;;;5052519;28;20033;-68
2022/09/04 03:09:30;;;;;;;3.08;2.00;;;15.40;69.50;;;;;;5050890;28;20056;-68
2022/09/04 03:12:10;;;;;;;2.85;1.85;;;15.30;70.00;;;;;;5052555;28;20537;-68
2022/09/04 03:14:46;;;;;;;4.60;2.20;;;15.30;70.00;;;;;;5052575;28;20037;-68
2022/09/04 03:17:25;;;;;;;4.82;2.17;;;15.30;70.40;;;;;;5052269;28;20036;-68
2022/09/04 03:19:58;;;;;;;5.28;2.03;;;15.20;70.80;;;;;;5052269;28;20045;-68
2022/09/04 03:22:34;;;;;;;5.28;1.88;;;15.20;71.20;;;;;;5052342;28;20115;-68
2022/09/04 03:25:19;;;;;;;3.40;1.88;;;15.20;71.50;;;;;;5052298;28;20041;-68
2022/09/04 03:27:45;;;;;;;3.03;1.98;;;15.20;71.60;;;;;;5052019;28;20114;-68
2022/09/04 03:30:13;;;;;;;4.32;1.88;;;15.10;72.10;;;;;;5051828;28;20605;-68
2022/09/04 03:32:57;;;;;;;4.75;2.70;;;15.10;72.20;;;;;;5052244;28;20052;-68
2022/09/04 03:35:34;;;;;;;3.90;1.83;;;15.10;72.60;;;;;;5052179;28;20439;-68
2022/09/04 03:38:27;;;;;;;5.93;2.13;;;15.00;72.80;;;;;;5051883;28;20037;-68
2022/09/04 03:41:29;;;;;;;4.70;1.80;;;15.00;73.20;;;;;;5051731;28;20531;-68
2022/09/04 03:44:06;;;;;;;5.13;2.13;;;15.00;73.60;;;;;;5051950;28;20045;-68
2022/09/04 03:46:50;;;;;;;2.60;1.88;;;14.90;73.90;;;;;;5051868;28;20137;-68
2022/09/04 03:49:34;;;;;;;2.92;2.08;;;14.80;74.10;;;;;;5050344;28;20057;-68
2022/09/04 03:52:13;;;;;;;4.38;2.15;;;14.90;74.80;;;;;;5051860;28;20084;-68
2022/09/04 03:55:08;;;;;;;4.15;2.33;;;14.80;75.00;;;;;;5051773;28;20080;-68
2022/09/04 03:57:49;;;;;;;4.43;2.40;;;14.90;75.10;;;;;;5033870;28;20076;-68
2022/09/04 04:00:19;;;;;;;4.07;2.35;;;14.80;75.20;;;;;;5051504;28;20041;-68
2022/09/04 04:03:22;;;;;;;4.13;1.70;;;14.80;75.50;;;;;;5051617;28;20091;-68
2022/09/04 04:06:12;;;;;;;4.18;2.30;;;14.80;75.90;;;;;;5051831;28;20048;-68
2022/09/04 04:09:10;;;;;;;2.80;1.90;;;14.70;76.00;;;;;;5051700;28;20048;-68
2022/09/04 04:12:09;;;;;;;2.90;2.00;;;14.70;76.30;;;;;;5051761;28;20045;-68
2022/09/04 04:14:55;;;;;;;3.75;1.92;;;14.70;76.60;;;;;;5051746;28;20045;-68
2022/09/04 04:17:40;;;;;;;4.07;2.08;;;14.70;76.70;;;;;;5051628;28;20047;-68
2022/09/04 04:20:11;;;;;;;4.75;2.30;;;14.70;77.00;;;;;;5051490;28;20056;-68
2022/09/04 04:22:55;;;;;;;6.68;2.40;;;14.70;77.00;;;;;;5049345;28;20044;-68
2022/09/04 04:25:26;;;;;;;6.95;2.45;;;14.70;77.10;;;;;;5048058;28;20538;-68
2022/09/04 04:28:18;;;;;;;2.35;1.90;;;14.60;77.60;;;;;;5051193;28;20099;-68
2022/09/04 04:30:53;;;;;;;6.63;2.22;;;14.60;78.00;;;;;;5051176;28;20083;-68
2022/09/04 04:33:58;;;;;;;4.22;2.40;;;14.60;78.10;;;;;;5051542;28;20044;-68
2022/09/04 04:36:55;;;;;;;4.97;2.30;;;14.60;77.90;;;;;;5009247;28;20503;-68
2022/09/04 04:39:47;;;;;;;4.82;2.13;;;14.60;78.30;;;;;;5046140;28;20110;-68
2022/09/04 04:42:20;;;;;;;;;;;14.60;78.50;;;;;;5050539;28;20045;-68
2022/09/04 04:48:09;;;;;;;4.10;2.53;;;14.60;78.60;;;;;;5051311;28;20048;-68
2022/09/04 04:50:49;;;;;;;8.10;2.42;;;14.60;78.70;;;;;;5045507;28;20029;-68
2022/09/04 04:53:44;;;;;;;5.93;2.53;;;14.60;79.20;;;;;;5050186;28;20118;-68
2022/09/04 04:56:28;;;;;;;6.05;2.80;;;14.60;79.30;;;;;;5045781;28;20052;-68
2022/09/04 04:59:19;;;;;;;6.40;2.47;;;14.50;80.00;;;;;;5051291;28;20379;-68
2022/09/04 05:02:07;;;;;;;6.28;2.78;;;14.60;80.20;;;;;;5049832;28;20068;-69
2022/09/04 05:04:52;;;;;;;5.40;2.30;;;14.50;80.00;;;;;;5051314;28;20037;-68
2022/09/04 05:07:34;;;;;;;3.15;2.40;;;14.50;80.20;;;;;;5051051;28;20483;-68
2022/09/04 05:10:30;;;;;;;3.60;2.53;;;14.60;80.40;;;;;;5051086;28;20090;-68
2022/09/04 05:13:25;;;;;;;5.07;2.35;;;14.50;81.00;;;;;;5019906;28;20077;-68
2022/09/04 05:16:04;;;;;;;4.82;2.55;;;14.50;81.30;;;;;;5051846;28;20051;-68
2022/09/04 05:18:51;;;;;;;5.85;2.67;;;14.50;81.10;;;;;;5054887;28;20045;-68
2022/09/04 05:21:43;;;;;;;5.70;2.40;;;14.50;81.10;;;;;;5054467;28;20068;-68
2022/09/04 05:24:31;;;;;;;3.03;2.25;;;14.50;81.30;;;;;;5054982;28;20502;-68
2022/09/04 05:27:11;;;;;;;5.57;2.65;;;14.50;81.50;;;;;;5054835;28;20453;-68
2022/09/04 05:29:38;;;;;;;7.20;3.17;;;14.50;81.70;;;;;;5054368;28;20084;-68
2022/09/04 05:32:12;;;;;;;5.30;3.20;;;14.50;81.50;;;;;;5054499;28;20519;-68
2022/09/04 05:34:47;;;;;;;4.82;2.58;;;14.50;81.70;;;;;;5054314;28;20044;-68
2022/09/04 05:37:38;;;;;;;3.28;2.60;;;14.60;81.70;;;;;;5054492;28;20041;-68
2022/09/04 05:40:11;;;;;;;5.63;2.45;;;14.60;82.00;;;;;;5054185;28;20041;-68
2022/09/04 05:43:00;;;;;;;3.17;2.50;;;14.60;82.10;;;;;;5054298;28;20171;-68
2022/09/04 05:45:55;;;;;;;4.78;2.53;;;14.60;82.30;;;;;;5054246;28;20033;-68
2022/09/04 05:48:39;;;;;;;4.50;2.65;;;14.60;82.30;;;;;;5054117;28;20681;-68
2022/09/04 05:51:43;;;;;;;5.55;2.80;;;14.60;82.40;;;;;;5053890;28;20045;-68
2022/09/04 05:54:24;;;;;;;4.40;2.60;;;14.60;82.30;;;;;;5053855;28;20118;-68
2022/09/04 05:57:03;;;;;;;6.13;2.65;;;14.60;82.60;;;;;;5053985;28;20063;-68
2022/09/04 05:59:28;;;;;;;5.00;2.75;;;14.60;82.40;;;;;;5053508;28;20048;-68
2022/09/04 06:02:03;;;;;;;4.53;2.65;;;14.70;82.60;;;;;;5053886;28;20045;-68
2022/09/04 06:04:40;;;;;;;4.07;2.42;;;14.70;82.60;;;;;;5036801;28;20048;-67
2022/09/04 06:07:12;;;;;;;6.25;3.17;;;14.80;82.30;;;;;;5054312;28;20494;-67
2022/09/04 06:10:02;;;;;;;6.43;2.80;;;14.70;82.40;;;;;;5053799;28;20094;-69
2022/09/04 06:12:52;;;;;;;4.13;2.75;;;14.70;82.50;;;;;;5054068;28;20084;-67
2022/09/04 06:15:34;;;;;;;6.00;2.88;;;14.70;82.70;;;;;;5054357;28;20041;-68
2022/09/04 06:18:42;;;;;;;7.85;3.90;;;14.70;82.90;;;;;;5054600;28;20384;-68
2022/09/04 06:21:13;;;;;;;5.45;3.03;;;14.90;82.50;;;;;;5036263;28;20041;-68
2022/09/04 06:23:39;;;;;;;6.28;2.65;;;15.00;82.30;;;;;;5052324;28;20049;-69
2022/09/04 06:26:26;;;;;;;4.32;2.95;;;15.10;81.90;;;;;;5053675;28;20116;-67
2022/09/04 06:29:10;;;;;;;6.47;2.50;;;15.10;81.80;;;;;;5050871;28;20041;-68
2022/09/04 06:32:03;;;;;;;4.50;2.92;;;15.40;81.20;;;;;;5053500;28;20051;-68
2022/09/04 06:34:40;;;;;;;4.95;3.10;;;15.60;80.50;;;;;;5053351;28;20044;-68
2022/09/04 06:37:37;;;;;;;4.13;2.90;;;15.80;79.90;;;;;;5053214;28;20040;-68
2022/09/04 06:40:14;;;;;;;5.38;3.28;;;15.90;79.60;;;;;;5052028;28;20049;-68
2022/09/04 06:43:04;;;;;;;6.05;2.92;;;16.00;78.50;;;;;;5053217;28;20454;-68
2022/09/04 06:45:57;;;;;;;3.60;2.67;;;16.30;77.80;;;;;;5053050;28;20052;-68
2022/09/04 06:48:43;;;;;;;5.13;2.78;;;16.40;77.20;;;;;;5053085;28;20037;-68
2022/09/04 06:51:47;;;;;;;4.03;2.97;;;16.50;77.20;;;;;;5050705;28;20045;-69
2022/09/04 06:54:30;;;;;;;4.70;3.20;;;16.60;76.90;;;;;;5051989;28;20556;-68
2022/09/04 06:57:16;;;;;;;4.60;3.08;;;16.80;76.50;;;;;;5051621;28;20049;-68
2022/09/04 06:59:51;;;;;;;6.65;3.90;;;17.10;75.40;;;;;;5052621;28;20045;-68
2022/09/04 07:02:32;;;;;;;7.43;3.92;;;17.30;74.80;;;;;;5051345;28;20120;-68
2022/09/04 07:05:22;;;;;;;7.05;3.45;;;17.50;74.00;;;;;;5051451;28;20037;-68
2022/09/04 07:08:28;;;;;;;4.93;3.42;;;17.80;73.50;;;;;;5051362;28;20041;-68
2022/09/04 07:11:23;;;;;;;6.40;3.13;;;18.00;72.60;;;;;;5051268;28;20097;-68
2022/09/04 07:14:15;;;;;;;6.53;3.08;;;18.20;71.90;;;;;;5052696;28;20048;-68
2022/09/04 07:17:06;;;;;;;5.35;3.28;;;18.50;71.60;;;;;;5052440;28;20119;-68
2022/09/04 07:20:11;;;;;;;6.55;3.20;;;18.60;70.00;;;;;;5052301;28;20124;-67
2022/09/04 07:23:01;;;;;;;7.40;3.42;;;18.70;69.80;;;;;;4990616;28;20082;-68
2022/09/04 07:25:29;;;;;;;6.75;3.22;;;18.70;69.20;;;;;;4974824;28;20077;-68
2022/09/04 07:28:19;;;;;;;7.40;3.15;;;18.90;69.60;;;;;;5023045;28;20048;-68
2022/09/04 07:30:51;;;;;;;5.95;3.65;;;19.00;68.80;;;;;;5051998;28;20041;-68
2022/09/04 07:33:27;;;;;;;7.60;3.17;;;19.20;68.40;;;;;;5052167;28;20067;-68
2022/09/04 07:36:12;;;;;;;5.75;3.75;;;19.20;68.60;;;;;;5051142;28;20045;-68
2022/09/04 07:38:51;;;;;;;6.30;3.55;;;19.40;68.00;;;;;;5051934;28;20052;-68
2022/09/04 07:41:30;;;;;;;6.20;3.45;;;19.60;67.20;;;;;;5050425;28;20037;-68
2022/09/04 07:44:28;;;;;;;7.88;3.20;;;19.60;66.50;;;;;;5050813;28;20036;-68
2022/09/04 07:47:17;;;;;;;6.88;3.15;;;19.90;66.70;;;;;;5034142;28;20048;-68
2022/09/04 07:49:59;;;;;;;5.60;2.90;;;20.10;66.10;;;;;;5050335;28;20095;-68
2022/09/04 07:52:49;;;;;;;2.95;2.60;;;20.10;65.30;;;;;;5052110;28;20131;-69
2022/09/04 07:55:40;;;;;;;3.90;2.45;;;20.30;65.30;;;;;;5051980;28;20052;-68
2022/09/04 07:58:43;;;;;;;3.75;2.38;;;20.50;64.40;;;;;;5051815;28;20037;-69
2022/09/04 08:01:18;;;;;;;4.40;2.63;;;20.60;63.90;;;;;;5051460;28;20101;-68
2022/09/04 08:03:59;;;;;;;4.95;2.88;;;20.70;63.80;;;;;;5060384;28;20044;-69
2022/09/04 08:06:45;;;;;;;3.97;2.38;;;20.70;64.10;;;;;;5049533;28;20083;-70
2022/09/04 08:09:36;;;;;;;2.95;2.30;;;20.80;63.80;;;;;;5050149;28;20115;-70
2022/09/04 08:12:20;;;;;;;6.32;2.28;;;20.90;63.20;;;;;;5051396;28;20498;-69
2022/09/04 08:14:55;;;;;;;3.15;2.50;;;21.10;62.60;;;;;;5052028;28;20095;-69
2022/09/04 08:17:40;;;;;;;4.40;2.47;;;21.30;63.00;;;;;;5050992;28;20071;-70
2022/09/04 08:20:40;;;;;;;3.45;2.03;;;21.60;62.70;;;;;;5051201;28;20068;-69
2022/09/04 08:23:33;;;;;;;4.57;2.42;;;21.50;61.50;;;;;;5039467;28;20068;-70
2022/09/04 08:26:13;;;;;;;;;;;21.80;62.20;;;;;;5051567;28;20025;-69
2022/09/04 08:29:05;;;;;;;6.07;2.47;;;21.70;61.40;;;;;;5074483;22;20344;-69
2022/09/04 08:31:41;;;;;;;2.78;2.22;;;22.00;61.30;;;;;;5036628;28;20037;-68
2022/09/04 08:34:52;;;;;;;2.85;2.53;;;22.00;61.30;;;;;;5051213;28;20037;-69
2022/09/04 08:37:48;;;;;;;3.78;2.67;;;22.10;61.10;;;;;;5014711;28;20046;-67
2022/09/04 08:40:35;;;;;;;4.25;2.30;;;22.20;60.90;;;;;;5018454;28;20041;-66
2022/09/04 08:43:38;;;;;;;3.05;2.40;;;22.30;60.60;;;;;;5031145;28;20052;-66
2022/09/04 08:46:31;;;;;;;5.25;2.33;;;22.40;60.20;;;;;;5030949;28;20047;-66
2022/09/04 08:49:24;;;;;;;13.00;2.38;;;22.50;60.50;;;;;;5030167;28;20068;-67
2022/09/04 08:52:13;;;;;;;7.80;2.20;;;22.60;59.80;;;;;;5033862;28;20046;-67
2022/09/04 08:54:56;;;;;;;7.05;2.42;;;22.70;60.40;;;;;;5034891;28;20037;-67
2022/09/04 08:57:21;;;;;;;;;;;22.90;59.20;;;;;;5035301;28;20618;-68
2022/09/04 09:00:25;;;;;;;3.38;2.58;;;22.90;59.20;;;;;;5034620;28;19925;-69
2022/09/04 09:03:09;;;;;;;;;;;22.90;59.30;;;;;;5034064;28;20056;-69
2022/09/04 09:06:05;;;;;;;4.97;2.67;;;23.00;59.10;;;;;;5035335;28;19917;-69
2022/09/04 09:08:53;;;;;;;4.75;2.40;;;23.20;59.10;;;;;;5033527;28;20041;-69
2022/09/04 09:11:32;;;;;;;5.75;2.40;;;23.30;58.00;;;;;;5034312;28;20385;-68
2022/09/04 09:14:26;;;;;;;4.38;2.03;;;23.40;58.30;;;;;;5034861;28;20038;-68
2022/09/04 09:17:23;;;;;;;6.60;2.15;;;23.50;58.60;;;;;;5034603;28;20037;-68
2022/09/04 09:20:19;;;;;;;4.95;1.88;;;23.50;57.50;;;;;;5034378;28;20083;-69
2022/09/04 09:23:14;;;;;;;5.40;1.73;;;23.40;58.00;;;;;;5027060;28;20053;-69
2022/09/04 09:25:55;;;;;;;4.10;1.63;;;23.40;57.60;;;;;;5032121;28;20064;-69
2022/09/04 09:28:29;;;;;;;2.70;1.88;;;23.50;57.40;;;;;;5033231;28;20061;-69
2022/09/04 09:31:21;;;;;;;6.00;1.92;;;23.60;57.80;;;;;;5033946;28;20033;-69
2022/09/04 09:34:22;;;;;;;3.15;2.03;;;23.50;56.90;;;;;;5034135;28;20041;-69
2022/09/04 09:37:07;;;;;;;4.35;1.92;;;23.40;57.00;;;;;;5033231;28;20056;-68
2022/09/04 09:40:06;;;;;;;4.53;1.80;;;23.40;57.30;;;;;;5033848;28;20043;-68
2022/09/04 09:42:52;;;;;;;2.33;1.70;;;23.20;56.10;;;;;;5033905;28;20052;-68
2022/09/04 09:45:29;;;;;;;2.33;1.70;;;23.40;56.30;;;;;;5034156;28;20053;-67
2022/09/04 09:48:23;;;;;;;3.00;1.80;;;23.50;56.30;;;;;;5034261;28;20045;-68
2022/09/04 09:51:11;;;;;;;2.10;1.63;;;23.60;56.60;;;;;;5033522;28;20088;-67
2022/09/04 09:53:43;;;;;;;2.20;1.45;;;23.60;56.50;;;;;;5032840;28;20483;-68
2022/09/04 09:56:39;;;;;;;5.68;2.00;;;23.70;56.60;;;;;;5033908;28;20033;-68
2022/09/04 09:59:43;;;;;;;4.50;1.60;;;23.80;56.30;;;;;;5030531;28;20069;-68
2022/09/04 10:02:30;;;;;;;2.80;1.63;;;23.70;55.70;;;;;;5031319;28;20128;-68
2022/09/04 10:05:07;;;;;;;3.95;1.98;;;23.50;55.20;;;;;;5034086;28;20037;-68
2022/09/04 10:08:09;;;;;;;4.00;1.60;;;23.50;55.40;;;;;;5033811;28;20041;-68
2022/09/04 10:11:12;;;;;;;3.50;1.80;;;23.60;55.30;;;;;;5033529;28;20522;-68
2022/09/04 10:14:02;;;;;;;3.63;1.58;;;23.70;55.70;;;;;;5033769;28;20038;-68
2022/09/04 10:16:52;;;;;;;7.10;1.55;;;23.80;55.30;;;;;;5033996;28;20042;-68
2022/09/04 10:20:01;;;;;;;2.75;1.42;;;23.90;56.00;;;;;;5033472;28;20399;-68
2022/09/04 10:22:48;;;;;;;3.40;1.40;;;23.90;54.60;;;;;;5033836;28;20037;-68
2022/09/04 10:25:35;;;;;;;3.20;1.60;;;23.90;54.90;;;;;;5033747;28;20041;-68
2022/09/04 10:28:01;;;;;;;6.35;1.98;;;24.10;54.90;;;;;;5033435;28;20474;-69
2022/09/04 10:30:55;;;;;;;10.27;2.22;;;24.10;54.90;;;;;;5033141;28;20087;-68
2022/09/04 10:33:36;;;;;;;2.38;1.60;;;24.10;54.00;;;;;;5033651;28;20442;-68
2022/09/04 10:36:21;;;;;;;3.95;1.77;;;24.10;53.70;;;;;;5033506;28;20041;-68
2022/09/04 10:42:10;;;;;;;2.63;1.50;;;24.10;54.20;;;;;;5032035;28;20112;-68
2022/09/04 10:44:46;;;;;;;3.67;2.00;;;24.00;53.60;;;;;;5033207;28;20033;-68
2022/09/04 10:47:33;;;;;;;2.90;1.48;;;24.00;53.70;;;;;;5033154;28;20041;-68
2022/09/04 10:50:50;;;;;;;4.38;1.70;;;24.10;54.00;;;;;;5031843;28;20147;-68
2022/09/04 10:53:37;;;;;;;4.05;1.58;;;24.10;53.90;;;;;;5020861;28;20041;-68
2022/09/04 10:56:25;;;;;;;3.97;1.77;;;24.00;53.70;;;;;;5033181;28;20046;-68
2022/09/04 10:59:09;;;;;;;2.72;1.80;;;23.90;53.50;;;;;;5031626;28;20033;-68
2022/09/04 11:01:34;;;;;;;3.40;1.70;;;23.90;53.80;;;;;;5032742;28;20446;-68
2022/09/04 11:04:32;;;;;;;2.58;1.63;;;24.00;54.00;;;;;;5033034;28;20099;-68
2022/09/04 11:07:28;;;;;;;6.30;1.92;;;24.00;53.50;;;;;;5031101;28;20132;-68
2022/09/04 11:10:05;;;;;;;2.15;1.52;;;24.10;53.90;;;;;;5032470;28;20120;-68
2022/09/04 11:12:56;;;;;;;2.35;1.60;;;24.20;54.20;;;;;;5032871;28;20037;-68
2022/09/04 11:15:22;;;;;;;5.75;1.83;;;24.30;53.90;;;;;;5032407;28;20104;-68
2022/09/04 11:18:24;;;;;;;3.92;1.90;;;24.30;54.00;;;;;;5032610;28;20530;-68
2022/09/04 11:21:15;;;;;;;2.20;1.42;;;24.30;53.40;;;;;;5032249;28;20719;-69
2022/09/04 11:23:58;;;;;;;3.50;1.70;;;24.30;53.40;;;;;;5032575;28;20129;-67
2022/09/04 11:27:00;;;;;;;6.30;2.08;;;24.30;53.20;;;;;;5032594;28;20096;-68
2022/09/04 11:29:53;;;;;;;2.88;1.90;;;24.40;53.70;;;;;;5032009;28;20041;-69
2022/09/04 11:32:22;;;;;;;3.90;1.75;;;24.60;53.40;;;;;;5031260;28;20407;-68
2022/09/04 11:34:54;;;;;;;3.35;1.73;;;24.70;53.20;;;;;;5033504;28;20490;-67
2022/09/04 11:37:32;;;;;;;2.45;1.60;;;24.80;53.10;;;;;;5042196;28;20052;-68
2022/09/04 11:40:24;;;;;;;4.40;1.90;;;24.90;52.90;;;;;;5031378;28;20043;-69
2022/09/04 11:43:12;;;;;;;6.05;1.83;;;24.80;52.10;;;;;;5027269;28;20503;-69
2022/09/04 11:45:47;;;;;;;3.17;1.80;;;24.90;52.60;;;;;;5031890;28;20094;-69
2022/09/04 11:48:25;;;;;;;4.65;2.40;;;25.00;52.40;;;;;;5031931;28;20104;-69
2022/09/04 11:50:55;;;;;;;4.97;1.70;;;25.10;52.20;;;;;;5031613;28;20041;-68
2022/09/04 11:53:59;;;;;;;3.65;1.85;;;25.00;51.90;;;;;;5031954;28;20046;-68
2022/09/04 11:56:43;;;;;;;6.80;1.90;;;24.90;51.40;;;;;;5030523;28;20049;-69
2022/09/04 11:59:36;;;;;;;2.95;1.50;;;24.90;51.50;;;;;;5031567;28;20120;-67
2022/09/04 12:02:28;;;;;;;3.08;1.60;;;24.90;51.40;;;;;;5031433;28;20042;-67
2022/09/04 12:05:42;;;;;;;5.97;1.52;;;24.90;52.40;;;;;;5031722;28;20053;-67
2022/09/04 12:08:44;;;;;;;2.72;1.48;;;24.90;51.70;;;;;;5031479;28;20112;-67
2022/09/04 12:11:13;;;;;;;3.80;1.67;;;24.90;51.50;;;;;;5021349;28;20492;-67
2022/09/04 12:13:58;;;;;;;4.68;1.70;;;24.90;52.00;;;;;;5031473;28;20096;-67
2022/09/04 12:16:37;;;;;;;4.38;1.67;;;25.00;51.70;;;;;;5031574;28;20041;-68
2022/09/04 12:19:25;;;;;;;3.75;1.55;;;25.10;51.30;;;;;;5031457;28;20037;-69
2022/09/04 12:22:10;;;;;;;2.60;1.35;;;25.20;51.40;;;;;;5031567;28;20041;-68
2022/09/04 12:25:06;;;;;;;2.47;1.77;;;25.20;51.50;;;;;;5031381;28;20495;-68
2022/09/04 12:27:52;;;;;;;5.78;1.63;;;25.30;51.10;;;;;;5034993;28;20038;-67
2022/09/04 12:30:24;;;;;;;6.38;1.50;;;25.40;51.90;;;;;;5035370;28;20033;-69
2022/09/04 12:33:03;;;;;;;5.35;1.60;;;25.40;51.40;;;;;;5035523;28;20112;-70
2022/09/04 12:35:56;;;;;;;2.55;1.50;;;25.40;51.30;;;;;;5035451;28;20135;-69
2022/09/04 12:38:34;;;;;;;4.55;1.35;;;25.40;51.30;;;;;;5035540;28;20041;-69
2022/09/04 12:41:24;;;;;;;2.65;1.17;;;25.40;51.50;;;;;;5034912;28;20038;-69
2022/09/04 12:44:02;;;;;;;4.20;1.27;;;25.40;51.70;;;;;;5035161;28;20522;-70
2022/09/04 12:46:47;;;;;;;3.90;1.15;;;25.40;51.60;;;;;;5034291;28;20116;-69
2022/09/04 12:49:42;;;;;;;4.53;1.65;;;25.40;51.60;;;;;;5034845;28;20033;-69
2022/09/04 12:52:35;;;;;;;5.55;1.85;;;25.40;51.30;;;;;;5035212;28;20052;-69
2022/09/04 12:55:23;;;;;;;2.50;1.40;;;25.40;51.20;;;;;;5035276;28;20048;-69
2022/09/04 12:58:16;;;;;;;5.07;1.70;;;25.60;51.50;;;;;;5035103;28;20060;-69
2022/09/04 13:01:11;;;;;;;3.38;1.40;;;25.60;50.90;;;;;;5034748;28;20083;-69
2022/09/04 13:03:48;;;;;;;3.08;1.80;;;25.70;50.90;;;;;;5031508;28;20052;-69
2022/09/04 13:06:58;;;;;;;2.58;1.48;;;25.70;50.80;;;;;;5028287;28;20034;-69
2022/09/04 13:09:33;;;;;;;4.13;1.75;;;25.70;50.70;;;;;;5018305;28;20073;-70
2022/09/04 13:12:15;;;;;;;2.80;1.20;;;25.70;50.50;;;;;;5034928;28;20067;-71
2022/09/04 13:15:07;;;;;;;2.63;1.30;;;25.80;50.40;;;;;;5045759;28;20041;-70
2022/09/04 13:17:57;;;;;;;2.45;1.58;;;25.80;50.90;;;;;;5035537;28;20041;-70
2022/09/04 13:20:47;;;;;;;3.03;1.60;;;25.90;51.20;;;;;;5033972;28;20045;-70
2022/09/04 13:23:41;;;;;;;3.17;1.70;;;26.00;50.90;;;;;;5035155;28;20544;-70
2022/09/04 13:26:28;;;;;;;2.22;1.33;;;26.00;51.20;;;;;;5035208;28;20042;-70
2022/09/04 13:29:07;;;;;;;2.45;1.13;;;26.00;51.50;;;;;;5034845;28;20045;-70
2022/09/04 13:32:03;;;;;;;3.13;1.42;;;26.10;51.40;;;;;;5034099;28;20065;-70
2022/09/04 13:35:10;;;;;;;2.42;1.50;;;26.10;51.20;;;;;;5043935;28;20037;-70
2022/09/04 13:37:54;;;;;;;3.50;1.70;;;26.20;50.80;;;;;;5050058;28;20038;-71
2022/09/04 13:40:47;;;;;;;2.13;1.25;;;26.20;50.20;;;;;;5049659;28;20034;-70
2022/09/04 13:43:40;;;;;;;4.95;1.42;;;26.30;50.50;;;;;;5037512;28;20121;-70
2022/09/04 13:46:23;;;;;;;2.08;1.30;;;26.30;50.60;;;;;;5036381;28;20068;-69
2022/09/04 13:48:57;;;;;;;2.08;1.15;;;26.40;50.30;;;;;;5035824;28;20372;-70
2022/09/04 13:51:34;;;;;;;3.40;1.20;;;26.50;50.40;;;;;;5035253;28;20099;-70
2022/09/04 13:54:16;;;;;;;2.20;1.30;;;26.40;49.50;;;;;;5034634;28;20057;-70
2022/09/04 13:57:08;;;;;;;3.70;1.25;;;26.40;49.70;;;;;;5034562;28;20061;-70
2022/09/04 13:59:35;;;;;;;1.73;1.20;;;26.40;49.90;;;;;;5034326;28;20103;-70
2022/09/04 14:02:07;;;;;;;1.95;1.45;;;26.50;50.40;;;;;;5033135;28;20042;-70
2022/09/04 14:04:46;;;;;;;1.92;1.13;;;26.50;50.20;;;;;;5034331;28;20037;-70
2022/09/04 14:07:28;;;;;;;2.03;1.15;;;26.50;49.80;;;;;;5034576;28;20045;-70
2022/09/04 14:09:58;;;;;;;4.88;1.45;;;26.60;49.70;;;;;;5034573;28;20124;-70
2022/09/04 14:12:44;;;;;;;1.70;1.10;;;26.50;49.70;;;;;;5033193;28;20064;-70
2022/09/04 14:16:00;;;;;;;1.60;1.13;;;26.50;49.40;;;;;;5033082;28;20045;-70
2022/09/04 14:18:58;;;;;;;3.85;1.55;;;26.40;49.60;;;;;;5033842;28;20415;-70
2022/09/04 14:21:33;;;;;;;3.33;1.40;;;26.30;49.80;;;;;;5033323;28;20045;-70
2022/09/04 14:24:31;;;;;;;4.25;1.75;;;26.30;50.10;;;;;;5031762;28;20042;-70
2022/09/04 14:27:34;;;;;;;3.08;1.60;;;26.20;50.50;;;;;;5032559;28;20046;-70
2022/09/04 14:30:07;;;;;;;;;;;26.30;50.40;;;;;;5077349;22;20552;-69